createdAt,value
2023-05-16T00:01:12.181Z,64.79
2023-05-16T00:04:14.186Z,64.69
2023-05-16T00:07:16.019Z,64.56
2023-05-16T00:10:17.830Z,64.76
2023-05-16T00:13:25.569Z,64.70
2023-05-16T00:16:29.439Z,64.74
2023-05-16T00:19:32.280Z,64.71
2023-05-16T00:22:33.956Z,64.72
2023-05-16T00:25:36.018Z,64.69
2023-05-16T00:28:37.716Z,64.53
2023-05-16T00:31:39.482Z,64.41
2023-05-16T00:34:41.225Z,64.58
2023-05-16T00:37:43.015Z,64.49
2023-05-16T00:40:44.866Z,64.54
2023-05-16T00:43:46.499Z,64.46
2023-05-16T00:46:48.311Z,64.48
2023-05-16T00:49:50.199Z,64.53
2023-05-16T00:52:52.049Z,64.54
2023-05-16T00:55:55.820Z,64.58
2023-05-16T00:58:58.008Z,64.41
2023-05-16T01:02:00.786Z,64.41
2023-05-16T01:05:07.831Z,64.45
2023-05-16T01:08:09.676Z,64.55
2023-05-16T01:11:26.461Z,64.50
2023-05-16T01:14:51.710Z,64.40
2023-05-16T01:18:00.416Z,64.39
2023-05-16T01:21:12.128Z,64.40
2023-05-16T01:24:22.954Z,64.52
2023-05-16T01:27:27.008Z,64.54
2023-05-16T01:30:34.611Z,64.41
2023-05-16T01:33:36.561Z,64.55
2023-05-16T01:37:00.121Z,64.51
2023-05-16T01:40:10.723Z,64.51
2023-05-16T01:43:16.494Z,64.52
2023-05-16T01:46:26.447Z,64.38
2023-05-16T01:49:36.304Z,64.38
2023-05-16T01:52:42.021Z,64.42
2023-05-16T01:55:47.887Z,64.36
2023-05-16T01:58:51.994Z,64.41
2023-05-16T02:01:56.260Z,64.51
2023-05-16T02:04:58.050Z,64.53
2023-05-16T02:08:00.556Z,64.41
2023-05-16T02:11:02.451Z,64.54
2023-05-16T02:14:04.097Z,64.47
2023-05-16T02:17:06.148Z,64.44
2023-05-16T02:20:11.336Z,64.49
2023-05-16T02:23:13.073Z,64.44
2023-05-16T02:26:14.879Z,64.62
2023-05-16T02:29:16.618Z,64.59
2023-05-16T02:32:18.432Z,64.62
2023-05-16T02:35:20.239Z,64.74
2023-05-16T02:38:22.088Z,64.63
2023-05-16T02:41:24.299Z,64.73
2023-05-16T02:44:25.999Z,64.75
2023-05-16T02:47:27.770Z,64.74
2023-05-16T02:50:29.640Z,64.80
2023-05-16T02:53:31.286Z,64.94
2023-05-16T02:56:33.033Z,64.89
2023-05-16T02:59:35.669Z,64.78
2023-05-16T03:02:37.957Z,65.05
2023-05-16T03:05:42.093Z,65.13
2023-05-16T03:08:43.750Z,65.06
2023-05-16T03:11:46.005Z,65.06
2023-05-16T03:14:47.610Z,65.11
2023-05-16T03:17:49.391Z,65.19
2023-05-16T03:20:52.334Z,65.30
2023-05-16T03:23:54.586Z,65.16
2023-05-16T03:26:56.876Z,65.23
2023-05-16T03:29:58.699Z,65.34
2023-05-16T03:33:00.590Z,65.48
2023-05-16T03:36:02.443Z,65.52
2023-05-16T03:39:04.664Z,65.56
2023-05-16T03:42:07.030Z,65.44
2023-05-16T03:45:09.082Z,65.56
2023-05-16T03:48:10.822Z,65.61
2023-05-16T03:51:12.604Z,65.66
2023-05-16T03:54:14.564Z,65.64
2023-05-16T03:57:16.530Z,65.59
2023-05-16T04:00:18.338Z,65.74
2023-05-16T04:03:27.515Z,65.70
2023-05-16T04:06:29.251Z,65.65
2023-05-16T04:09:30.887Z,65.73
2023-05-16T04:12:32.614Z,65.84
2023-05-16T04:15:34.352Z,65.80
2023-05-16T04:18:36.127Z,65.81
2023-05-16T04:21:37.828Z,65.84
2023-05-16T04:24:39.548Z,65.90
2023-05-16T04:27:41.580Z,65.95
2023-05-16T04:30:43.504Z,66.04
2023-05-16T04:33:45.416Z,66.07
2023-05-16T04:36:47.114Z,66.27
2023-05-16T04:39:48.753Z,66.20
2023-05-16T04:42:50.844Z,66.19
2023-05-16T04:45:53.479Z,66.27
2023-05-16T04:48:55.320Z,66.21
2023-05-16T04:51:57.162Z,66.21
2023-05-16T04:54:59.859Z,66.35
2023-05-16T04:58:01.605Z,66.31
2023-05-16T05:01:03.663Z,66.39
2023-05-16T05:04:05.330Z,66.45
2023-05-16T05:07:07.727Z,66.28
2023-05-16T05:10:10.312Z,66.47
2023-05-16T05:13:12.110Z,66.46
2023-05-16T05:16:13.879Z,66.50
2023-05-16T05:19:15.690Z,66.45
2023-05-16T05:22:17.506Z,66.46
2023-05-16T05:25:19.293Z,66.41
2023-05-16T05:28:20.956Z,66.33
2023-05-16T05:31:22.915Z,66.38
2023-05-16T05:34:24.613Z,66.34
2023-05-16T05:37:26.686Z,66.17
2023-05-16T05:40:28.459Z,66.23
2023-05-16T05:43:30.290Z,66.30
2023-05-16T05:46:33.302Z,66.13
2023-05-16T05:49:35.514Z,65.94
2023-05-16T05:52:37.930Z,65.87
2023-05-16T05:55:41.598Z,65.84
2023-05-16T05:58:43.386Z,65.78
2023-05-16T06:01:45.124Z,65.72
2023-05-16T06:04:46.941Z,65.51
2023-05-16T06:07:48.784Z,65.60
2023-05-16T06:10:50.573Z,65.37
2023-05-16T06:13:52.482Z,65.47
2023-05-16T06:16:54.463Z,65.29
2023-05-16T06:19:56.174Z,65.46
2023-05-16T06:22:57.881Z,65.23
2023-05-16T06:25:59.684Z,65.09
2023-05-16T06:29:01.385Z,64.92
2023-05-16T06:32:03.199Z,65.07
2023-05-16T06:35:05.327Z,65.04
2023-05-16T06:38:07.018Z,65.07
2023-05-16T06:41:08.707Z,65.09
2023-05-16T06:44:11.011Z,64.87
2023-05-16T06:47:12.822Z,64.81
2023-05-16T06:50:15.042Z,64.80
2023-05-16T06:53:17.507Z,64.57
2023-05-16T06:56:19.524Z,64.46
2023-05-16T06:59:21.542Z,64.38
2023-05-16T07:02:23.694Z,64.28
2023-05-16T07:05:25.811Z,64.24
2023-05-16T07:08:27.560Z,64.18
2023-05-16T07:11:29.517Z,64.11
2023-05-16T07:14:31.388Z,63.97
2023-05-16T07:24:39.281Z,62.90
2023-05-16T07:27:45.095Z,62.94
2023-05-16T07:30:48.803Z,62.96
2023-05-16T07:33:53.929Z,63.10
2023-05-16T07:36:57.550Z,62.90
2023-05-16T07:40:01.100Z,62.52
2023-05-16T07:43:04.251Z,62.33
2023-05-16T07:46:07.370Z,62.05
2023-05-16T07:49:11.052Z,61.85
2023-05-16T07:52:14.179Z,61.99
2023-05-16T07:55:17.363Z,62.14
2023-05-16T07:58:20.507Z,62.11
2023-05-16T08:01:23.798Z,61.79
2023-05-16T08:04:26.907Z,61.61
2023-05-16T08:07:30.168Z,61.52
2023-05-16T08:10:33.390Z,60.99
2023-05-16T08:13:36.965Z,60.38
2023-05-16T08:16:41.166Z,60.13
2023-05-16T08:19:44.240Z,59.62
2023-05-16T08:22:47.269Z,59.17
2023-05-16T08:25:50.384Z,59.00
2023-05-16T08:28:53.549Z,58.65
2023-05-16T08:31:56.989Z,58.86
2023-05-16T08:35:00.513Z,58.78
2023-05-16T08:38:03.772Z,58.53
2023-05-16T08:41:06.931Z,58.73
2023-05-16T08:44:12.949Z,58.53
2023-05-16T08:47:21.835Z,58.12
2023-05-16T08:50:25.874Z,57.60
2023-05-16T08:53:37.327Z,57.49
2023-05-16T08:56:42.496Z,57.32
2023-05-16T08:59:45.722Z,56.53
2023-05-16T09:02:50.251Z,56.04
2023-05-16T09:05:53.388Z,56.07
2023-05-16T09:08:56.753Z,56.22
2023-05-16T09:12:00.097Z,56.12
2023-05-16T09:15:05.081Z,55.49
2023-05-16T09:18:14.049Z,54.98
2023-05-16T09:21:17.386Z,54.37
2023-05-16T09:24:26.417Z,54.25
2023-05-16T09:27:31.782Z,54.36
2023-05-16T09:30:35.436Z,54.26
2023-05-16T09:33:41.937Z,53.59
2023-05-16T09:36:45.138Z,53.56
2023-05-16T09:39:52.998Z,53.28
2023-05-16T09:43:04.619Z,52.96
2023-05-16T09:46:08.497Z,52.64
2023-05-16T09:49:14.552Z,52.45
2023-05-16T09:52:18.770Z,52.57
2023-05-16T09:55:23.251Z,52.23
2023-05-16T09:58:35.226Z,51.83
2023-05-16T10:01:38.804Z,51.60
2023-05-16T10:04:42.555Z,51.42
2023-05-16T10:07:46.158Z,51.42
2023-05-16T10:10:54.128Z,51.01
2023-05-16T10:13:57.330Z,51.17
2023-05-16T10:17:01.545Z,51.44
2023-05-16T10:20:08.148Z,51.35
2023-05-16T10:23:19.326Z,51.58
2023-05-16T10:26:23.901Z,52.13
2023-05-16T10:29:28.795Z,52.37
2023-05-16T10:32:32.597Z,51.96
2023-05-16T10:35:37.256Z,51.92
2023-05-16T10:38:41.549Z,52.05
2023-05-16T10:41:45.089Z,52.04
2023-05-16T10:44:58.496Z,52.79
2023-05-16T10:48:10.029Z,53.21
2023-05-16T10:51:22.037Z,53.25
2023-05-16T10:54:35.504Z,53.32
2023-05-16T10:57:42.599Z,53.22
2023-05-16T11:00:51.131Z,53.23
2023-05-16T11:03:57.347Z,53.21
2023-05-16T11:07:01.853Z,52.99
2023-05-16T11:10:17.279Z,53.45
2023-05-16T11:13:24.808Z,53.93
2023-05-16T11:16:29.355Z,54.11
2023-05-16T11:19:45.194Z,54.36
2023-05-16T11:22:48.318Z,54.72
2023-05-16T11:26:00.769Z,54.42
2023-05-16T11:29:04.771Z,54.61
2023-05-16T11:32:10.619Z,54.63
2023-05-16T11:35:18.049Z,54.58
2023-05-16T11:38:21.272Z,54.50
2023-05-16T11:41:24.546Z,54.43
2023-05-16T11:44:28.043Z,54.00
2023-05-16T11:47:32.154Z,53.91
2023-05-16T11:50:36.320Z,54.13
2023-05-16T11:53:39.901Z,53.85
2023-05-16T11:56:43.235Z,53.49
2023-05-16T11:59:46.499Z,53.33
2023-05-16T12:02:50.307Z,53.61
2023-05-16T12:05:57.317Z,53.68
2023-05-16T12:09:03.925Z,53.26
2023-05-16T12:12:07.749Z,53.52
2023-05-16T12:15:12.130Z,53.60
2023-05-16T12:18:16.776Z,53.52
2023-05-16T12:21:21.640Z,53.61
2023-05-16T12:24:30.969Z,53.75
2023-05-16T12:27:34.093Z,53.40
2023-05-16T12:30:42.727Z,53.36
2023-05-16T12:33:46.732Z,53.13
2023-05-16T12:36:53.989Z,53.33
2023-05-16T12:40:01.060Z,53.33
2023-05-16T12:43:04.605Z,53.52
2023-05-16T12:46:12.185Z,53.76
2023-05-16T12:49:15.598Z,53.29
2023-05-16T12:52:23.118Z,52.94
2023-05-16T12:55:27.056Z,53.16
2023-05-16T12:58:30.808Z,53.38
2023-05-16T13:01:35.699Z,53.28
2023-05-16T13:04:38.890Z,53.59
2023-05-16T13:07:42.098Z,53.54
2023-05-16T13:10:45.195Z,53.31
2023-05-16T13:13:48.320Z,53.43
2023-05-16T13:16:51.599Z,53.20
2023-05-16T13:19:54.717Z,53.07
2023-05-16T13:22:57.843Z,52.57
2023-05-16T13:26:03.649Z,52.19
2023-05-16T13:29:07.507Z,52.51
2023-05-16T13:32:10.841Z,52.69
2023-05-16T13:35:14.456Z,52.77
2023-05-16T13:38:17.588Z,52.65
2023-05-16T13:41:20.942Z,53.07
2023-05-16T13:44:24.059Z,53.24
2023-05-16T13:47:27.502Z,53.00
2023-05-16T13:50:33.950Z,52.89
2023-05-16T13:53:41.979Z,53.01
2023-05-16T13:56:45.713Z,52.78
2023-05-16T14:00:17.673Z,53.00
2023-05-16T14:03:14.783Z,53.24
2023-05-16T14:06:18.192Z,53.55
2023-05-16T14:09:21.270Z,54.31
2023-05-16T14:12:24.516Z,54.52
2023-05-16T14:15:27.991Z,54.90
2023-05-16T14:18:31.418Z,55.22
2023-05-16T14:21:34.597Z,55.38
2023-05-16T14:24:37.841Z,55.67
2023-05-16T14:27:41.484Z,55.87
2023-05-16T14:30:45.988Z,55.85
2023-05-16T14:33:51.489Z,56.22
2023-05-16T14:36:54.772Z,56.33
2023-05-16T14:39:58.002Z,56.65
2023-05-16T14:43:04.158Z,56.96
2023-05-16T14:46:07.480Z,57.30
2023-05-16T14:49:11.144Z,57.50
2023-05-16T14:52:14.272Z,57.84
2023-05-16T14:55:17.322Z,58.03
2023-05-16T14:58:20.303Z,58.44
2023-05-16T15:01:23.462Z,58.86
2023-05-16T15:04:28.394Z,58.96
2023-05-16T15:07:31.431Z,59.42
2023-05-16T15:10:34.596Z,59.62
2023-05-16T15:13:37.870Z,59.84
2023-05-16T15:16:41.005Z,60.29
2023-05-16T15:19:44.130Z,60.61
2023-05-16T15:22:47.919Z,60.81
2023-05-16T15:25:52.324Z,61.09
2023-05-16T15:28:55.766Z,61.28
2023-05-16T15:31:58.850Z,61.65
2023-05-16T15:35:01.976Z,61.93
2023-05-16T15:38:05.079Z,62.05
2023-05-16T15:41:24.038Z,62.09
2023-05-16T15:44:33.130Z,62.34
2023-05-16T15:47:39.283Z,62.42
2023-05-16T15:50:45.668Z,62.73
2023-05-16T15:53:56.147Z,62.92
2023-05-16T15:56:59.423Z,63.26
2023-05-16T16:00:02.549Z,63.33
2023-05-16T16:03:17.182Z,63.37
2023-05-16T16:06:21.726Z,63.59
2023-05-16T16:09:26.497Z,63.60
2023-05-16T16:12:31.321Z,63.59
2023-05-16T16:15:38.486Z,63.92
2023-05-16T16:18:46.164Z,64.09
2023-05-16T16:21:56.111Z,64.20
2023-05-16T16:25:00.617Z,64.38
2023-05-16T16:28:07.122Z,64.49
2023-05-16T16:31:11.008Z,64.63
2023-05-16T16:34:14.490Z,64.75
2023-05-16T16:37:17.611Z,64.84
2023-05-16T16:40:20.889Z,64.97
2023-05-16T16:43:23.871Z,64.95
2023-05-16T16:46:27.041Z,65.05
2023-05-16T16:49:31.421Z,65.12
2023-05-16T16:52:39.052Z,65.20
2023-05-16T16:55:45.839Z,65.22
2023-05-16T16:58:49.341Z,65.52
2023-05-16T17:01:52.530Z,65.63
2023-05-16T17:04:55.890Z,65.71
2023-05-16T17:07:58.989Z,65.84
2023-05-16T17:11:05.162Z,65.85
2023-05-16T17:14:10.744Z,65.83
2023-05-16T17:17:15.340Z,66.18
2023-05-16T17:20:18.548Z,66.06
2023-05-16T17:23:22.060Z,66.36
2023-05-16T17:26:25.118Z,66.38
2023-05-16T17:29:28.359Z,66.38
2023-05-16T17:32:31.781Z,66.52
2023-05-16T17:35:35.905Z,66.68
2023-05-16T17:38:38.982Z,66.75
2023-05-16T17:41:42.414Z,66.83
2023-05-16T17:44:45.770Z,66.92
2023-05-16T17:47:49.151Z,66.93
2023-05-16T17:50:52.181Z,67.06
2023-05-16T17:53:55.309Z,67.09
2023-05-16T17:57:00.601Z,67.17
2023-05-16T18:00:06.109Z,67.33
2023-05-16T18:03:09.529Z,67.35
2023-05-16T18:06:12.668Z,67.42
2023-05-16T18:09:15.684Z,67.42
2023-05-16T18:12:18.896Z,67.56
2023-05-16T18:15:22.504Z,67.57
2023-05-16T18:18:26.805Z,67.71
2023-05-16T18:21:30.419Z,67.64
2023-05-16T18:24:34.609Z,67.75
2023-05-16T18:27:38.121Z,67.81
2023-05-16T18:30:41.410Z,67.60
2023-05-16T18:33:44.791Z,67.68
2023-05-16T18:36:48.967Z,67.67
2023-05-16T18:39:52.536Z,67.77
2023-05-16T18:42:56.695Z,67.68
2023-05-16T18:46:01.850Z,67.71
2023-05-16T18:49:05.388Z,67.67
2023-05-16T18:52:09.596Z,67.69
2023-05-16T18:55:14.794Z,67.71
2023-05-16T18:58:19.007Z,67.77
2023-05-16T19:01:22.522Z,67.76
2023-05-16T19:04:26.049Z,67.78
2023-05-16T19:07:29.602Z,67.85
2023-05-16T19:10:38.103Z,67.88
2023-05-16T19:13:41.489Z,67.83
2023-05-16T19:16:44.636Z,67.79
2023-05-16T19:19:47.778Z,67.85
2023-05-16T19:22:51.650Z,67.91
2023-05-16T19:25:54.893Z,67.99
2023-05-16T19:28:58.118Z,68.07
2023-05-16T19:32:01.400Z,68.02
2023-05-16T19:35:05.398Z,68.06
2023-05-16T19:38:08.656Z,68.08
2023-05-16T19:41:11.735Z,67.95
2023-05-16T19:44:14.866Z,68.01
2023-05-16T19:47:18.164Z,68.15
2023-05-16T19:50:21.762Z,68.08
2023-05-16T19:53:24.810Z,68.00
2023-05-16T19:56:28.340Z,68.01
2023-05-16T19:59:34.274Z,68.01
2023-05-16T20:02:37.375Z,67.93
2023-05-16T20:05:40.482Z,67.83
2023-05-16T20:08:43.554Z,67.89
2023-05-16T20:11:46.803Z,67.76
2023-05-16T20:14:49.795Z,67.80
2023-05-16T20:17:52.885Z,67.69
2023-05-16T20:20:57.445Z,67.69
2023-05-16T20:24:01.828Z,67.68
2023-05-16T20:27:05.148Z,67.71
2023-05-16T20:30:08.736Z,67.68
2023-05-16T20:33:11.968Z,67.73
2023-05-16T20:36:15.087Z,67.77
2023-05-16T20:39:18.148Z,67.80
2023-05-16T20:42:21.895Z,67.79
2023-05-16T20:45:27.205Z,67.89
2023-05-16T20:48:30.552Z,67.85
2023-05-16T20:51:33.698Z,67.92
2023-05-16T20:54:36.796Z,67.94
2023-05-16T20:57:41.703Z,68.03
2023-05-16T21:00:46.074Z,68.08
2023-05-16T21:03:49.203Z,68.04
2023-05-16T21:06:52.339Z,68.13
2023-05-16T21:09:55.474Z,68.06
2023-05-16T21:12:58.535Z,68.11
2023-05-16T21:16:01.685Z,68.14
2023-05-16T21:19:04.932Z,68.12
2023-05-16T21:22:08.236Z,68.22
2023-05-16T21:25:11.364Z,68.43
2023-05-16T21:28:14.424Z,68.41
2023-05-16T21:31:17.530Z,68.31
2023-05-16T21:34:20.509Z,68.25
2023-05-16T21:37:23.619Z,68.34
2023-05-16T21:40:28.769Z,68.36
2023-05-16T21:43:31.780Z,68.22
2023-05-16T21:46:34.845Z,68.37
2023-05-16T21:49:37.839Z,68.17
2023-05-16T21:52:41.294Z,68.20
2023-05-16T21:55:44.432Z,68.19
2023-05-16T21:58:47.500Z,68.09
2023-05-16T22:01:50.531Z,68.30
2023-05-16T22:04:53.581Z,68.27
2023-05-16T22:07:56.646Z,68.17
2023-05-16T22:10:59.974Z,68.28
2023-05-16T22:14:03.152Z,68.18
2023-05-16T22:17:06.297Z,68.14
2023-05-16T22:20:09.769Z,68.16
2023-05-16T22:23:12.831Z,68.32
2023-05-16T22:26:15.810Z,68.28
2023-05-16T22:29:18.893Z,68.31
2023-05-16T22:32:22.374Z,68.13
2023-05-16T22:35:27.329Z,68.27
2023-05-16T22:38:31.803Z,68.11
2023-05-16T22:41:35.012Z,68.11
2023-05-16T22:44:38.352Z,68.17
2023-05-16T22:47:41.563Z,68.16
2023-05-16T22:50:44.621Z,68.12
2023-05-16T22:53:47.793Z,68.22
2023-05-16T22:56:51.631Z,68.22
2023-05-16T22:59:55.950Z,68.17
2023-05-16T23:02:59.139Z,68.19
2023-05-16T23:06:02.255Z,68.13
2023-05-16T23:09:05.360Z,68.19
2023-05-16T23:12:08.812Z,68.10
2023-05-16T23:15:11.905Z,68.20
2023-05-16T23:18:15.044Z,68.24
2023-05-16T23:21:18.091Z,68.30
2023-05-16T23:24:21.253Z,68.28
2023-05-16T23:27:24.299Z,68.35
2023-05-16T23:30:27.327Z,68.21
2023-05-16T23:33:30.654Z,68.14
2023-05-16T23:36:33.787Z,68.27
2023-05-16T23:39:36.929Z,68.25
2023-05-16T23:42:42.705Z,68.23
2023-05-16T23:45:45.901Z,68.12
2023-05-16T23:48:49.020Z,68.01
2023-05-16T23:51:57.903Z,68.17
2023-05-16T23:55:01.887Z,68.12
2023-05-16T23:58:04.952Z,68.15
